Flight Track Log - Related Links

Times and Time Zones

All times are in EDT time to prevent confusion due to time zone crossing. See the PDT4314 flight status page for this flight to view local times or setup timezone preferences in your user account.


Time Position Orientation Groundspeed Altitude Reporting Facility
EDT Latitude Longitude Course Direction KTS MPH feet Rate Location/Type
Fri 07:30:00 PM 41.9824 -75.9058 180° South  Level Estimated
Fri 07:31:00 PM 41.9245 -75.9127 185° South  Level FlightAware Approximate
Fri 07:32:00 PM 41.8666 -75.9196 185° South  Level FlightAware Approximate
Fri 07:33:00 PM 41.8086 -75.9264 185° South  Level FlightAware Approximate
Fri 07:34:00 PM 41.7525 -75.9059 154° Southeast  Level Estimated
Fri 07:35:00 PM 41.6964 -75.8855 160° South  Level Estimated
Fri 07:36:00 PM 41.6402 -75.8651 159° South  Level Estimated
Fri 07:37:00 PM 41.5853 -75.8396 161° South  Level FlightAware Approximate
Fri 07:38:00 PM 41.5303 -75.8141 161° South  Level FlightAware Approximate
Fri 07:39:00 PM 41.4741 -75.7941 153° Southeast  Level Estimated
Fri 07:40:00 PM 41.4179 -75.7742 161° South  Level Estimated
Fri 07:41:00 PM 41.3649 -75.7423 156° South  Level FlightAware Approximate
Fri 07:42:00 PM 41.3119 -75.7105 156° South  Level FlightAware Approximate
Fri 07:43:00 PM 41.2555 -75.6917 162° South  Level Estimated
Fri 07:44:00 PM 41.2009 -75.6649 160° South  Level FlightAware Approximate
Fri 07:45:00 PM 41.1463 -75.6381 160° South  Level FlightAware Approximate
Fri 07:46:00 PM 41.0917 -75.6114 160° South  Level FlightAware Approximate
Fri 07:47:00 PM 41.0371 -75.5848 160° South  Level FlightAware Approximate
Fri 07:48:00 PM 40.9804 -75.5677 159° South  Level Estimated
Fri 07:49:00 PM 40.9237 -75.5507 163° South  Level Estimated
Fri 07:50:00 PM 40.8691 -75.5241 160° South  Level FlightAware Approximate
Fri 07:51:00 PM 40.8145 -75.4975 160° South  Level FlightAware Approximate
Fri 07:52:00 PM 40.7599 -75.4710 160° South  Level FlightAware Approximate
Fri 07:52:58 PM 40.6500 -75.5833 205° Southwest 230 265 8,000  Level Philadelphia TRACON
Fri 07:53:00 PM 40.7029 -75.4560 190° South  Level Estimated
Fri 07:54:00 PM 40.6455 -75.4685 189° South  Level FlightAware Approximate
Fri 07:54:04 PM 40.5833 -75.5833 180° South 238 274 7,400  Level Philadelphia TRACON
Fri 07:55:00 PM 40.5881 -75.4809 189° South  Level FlightAware Approximate
Fri 07:55:04 PM 40.5000 -75.5667 171° South 256 295 6,400  Level Philadelphia TRACON
Fri 07:56:00 PM 40.5307 -75.4934 189° South  Level FlightAware Approximate
Fri 07:56:04 PM 40.4333 -75.5667 180° South 258 297 5,500  Level Philadelphia TRACON
Fri 07:57:00 PM 40.4749 -75.4718 187° South  Level Estimated
Fri 07:57:04 PM 40.3667 -75.5667 180° South 249 287 5,000  Level Philadelphia TRACON
Fri 07:58:00 PM 40.4150 -75.5077 205° Southwest  Level FlightAware Approximate
Fri 07:58:04 PM 40.3000 -75.5667 180° South 231 266 4,900  Level Philadelphia TRACON
Fri 07:59:04 PM 40.2333 -75.5500 169° South 235 270 4,200 -450 Descending Philadelphia TRACON
Fri 08:00:04 PM 40.1833 -75.5500 180° South 241 277 4,000 -100 Descending Philadelphia TRACON
Fri 08:01:04 PM 40.1167 -75.5500 180° South 229 264 4,000  Level Philadelphia TRACON
Fri 08:02:04 PM 40.0500 -75.5167 159° South 233 268 4,000  Level Philadelphia TRACON
Fri 08:03:04 PM 40.0333 -75.4333 105° East 241 277 4,000  Level Philadelphia TRACON
Fri 08:04:04 PM 40.0333 -75.3500 90° East 239 275 4,000  Level Philadelphia TRACON
Fri 08:05:04 PM 40.0167 -75.2667 105° East 233 268 4,000  Level Philadelphia TRACON
Fri 08:06:04 PM 40.0000 -75.2000 108° East 221 254 4,000  Level Philadelphia TRACON
Fri 08:07:04 PM 39.9667 -75.1500 131° Southeast 216 249 4,000  Level Philadelphia TRACON
Fri 08:08:04 PM 39.9667 -75.0667 90° East 215 247 4,000  Level Philadelphia TRACON
Fri 08:09:04 PM 39.9833 -75.0000 72° East 195 224 4,000  Level Philadelphia TRACON
Fri 08:10:04 PM 40.0000 -74.9333 72° East 194 223 4,000  Level Philadelphia TRACON
Fri 08:11:04 PM 40.0000 -74.8667 90° East 198 228 4,000 -150 Level Philadelphia TRACON
Fri 08:12:04 PM 39.9667 -74.9000 217° Southwest 179 206 3,700 -500 Descending Philadelphia TRACON
Fri 08:13:04 PM 39.9500 -74.9500 247° West 168 193 3,000 -750 Descending Philadelphia TRACON
Fri 08:14:04 PM 39.9333 -75.0167 252° West 169 194 2,200 -550 Descending Philadelphia TRACON
Fri 08:15:04 PM 39.9167 -75.0667 247° West 170 196 1,900 -400 Descending Philadelphia TRACON
Fri 08:16:04 PM 39.9000 -75.1333 252° West 164 189 1,400 -550 Descending Philadelphia TRACON
Fri 08:17:04 PM 39.8833 -75.1667 237° Southwest 118 136 800 -650 Descending Philadelphia TRACON
Fri 08:18:04 PM 39.8833 -75.2167 270° West 102 117 100 -700 Descending Philadelphia TRACON

Login

Don't have an account? Register now (free) for customized features, flight alerts, and more!